sensor_id;sensor_type;location;lat;lon;timestamp;pressure;altitude;pressure_sealevel;temperature;humidity
57572;BME280;44459;43.522;24.470;2023-02-26T00:01:35;98903.47;;;10.03;92.51
57572;BME280;44459;43.522;24.470;2023-02-26T00:04:03;98905.19;;;10.07;92.47
57572;BME280;44459;43.522;24.470;2023-02-26T00:06:33;98892.03;;;10.06;92.39
57572;BME280;44459;43.522;24.470;2023-02-26T00:08:59;98899.94;;;10.04;92.24
57572;BME280;44459;43.522;24.470;2023-02-26T00:11:25;98894.75;;;9.98;92.66
57572;BME280;44459;43.522;24.470;2023-02-26T00:13:51;98893.84;;;10.02;92.63
57572;BME280;44459;43.522;24.470;2023-02-26T00:16:28;98877.09;;;10.03;92.53
57572;BME280;44459;43.522;24.470;2023-02-26T00:19:00;98888.56;;;10.02;92.66
57572;BME280;44459;43.522;24.470;2023-02-26T00:21:27;98878.06;;;9.99;92.68
57572;BME280;44459;43.522;24.470;2023-02-26T00:23:53;98866.78;;;9.87;93.77
57572;BME280;44459;43.522;24.470;2023-02-26T00:26:20;98869.50;;;9.81;94.31
57572;BME280;44459;43.522;24.470;2023-02-26T00:28:46;98865.06;;;9.83;94.19
57572;BME280;44459;43.522;24.470;2023-02-26T00:31:14;98862.41;;;9.87;94.12
57572;BME280;44459;43.522;24.470;2023-02-26T00:33:40;98863.31;;;9.85;94.24
57572;BME280;44459;43.522;24.470;2023-02-26T00:36:34;98859.75;;;9.87;94.03
57572;BME280;44459;43.522;24.470;2023-02-26T00:39:37;98855.41;;;9.83;94.14
57572;BME280;44459;43.522;24.470;2023-02-26T00:41:59;98855.38;;;9.86;94.09
57572;BME280;44459;43.522;24.470;2023-02-26T00:44:25;98845.69;;;9.87;93.76
57572;BME280;44459;43.522;24.470;2023-02-26T00:55:12;98845.66;;;9.90;93.53
57572;BME280;44459;43.522;24.470;2023-02-26T00:57:37;98830.78;;;9.86;93.25
57572;BME280;44459;43.522;24.470;2023-02-26T01:00:04;98846.59;;;9.86;93.43
57572;BME280;44459;43.522;24.470;2023-02-26T01:02:33;98832.63;;;9.79;93.79
57572;BME280;44459;43.522;24.470;2023-02-26T01:04:59;98827.44;;;9.73;93.71
57572;BME280;44459;43.522;24.470;2023-02-26T01:07:26;98823.09;;;9.69;93.18
57572;BME280;44459;43.522;24.470;2023-02-26T01:09:52;98823.09;;;9.69;92.83
57572;BME280;44459;43.522;24.470;2023-02-26T01:12:18;98819.63;;;9.67;92.61
57572;BME280;44459;43.522;24.470;2023-02-26T01:14:44;98810.84;;;9.65;92.33
57572;BME280;44459;43.522;24.470;2023-02-26T01:25:00;98804.78;;;9.60;92.31
57572;BME280;44459;43.522;24.470;2023-02-26T01:27:26;98806.56;;;9.59;92.31
57572;BME280;44459;43.522;24.470;2023-02-26T01:29:52;98804.75;;;9.65;92.02
57572;BME280;44459;43.522;24.470;2023-02-26T01:32:24;98799.44;;;9.66;91.52
57572;BME280;44459;43.522;24.470;2023-02-26T01:35:01;98799.34;;;9.72;91.12
57572;BME280;44459;43.522;24.470;2023-02-26T01:37:40;98793.22;;;9.72;90.78
57572;BME280;44459;43.522;24.470;2023-02-26T01:41:15;98778.25;;;9.74;89.40
57572;BME280;44459;43.522;24.470;2023-02-26T01:43:25;98774.69;;;9.76;88.61
57572;BME280;44459;43.522;24.470;2023-02-26T01:46:05;98774.59;;;9.82;88.74
57572;BME280;44459;43.522;24.470;2023-02-26T01:48:41;98775.53;;;9.81;88.07
57572;BME280;44459;43.522;24.470;2023-02-26T01:51:12;98781.63;;;9.83;88.04
57572;BME280;44459;43.522;24.470;2023-02-26T01:53:37;98779.88;;;9.82;87.99
57572;BME280;44459;43.522;24.470;2023-02-26T01:56:12;98779.88;;;9.82;88.03
57572;BME280;44459;43.522;24.470;2023-02-26T01:58:39;98781.63;;;9.85;87.83
57572;BME280;44459;43.522;24.470;2023-02-26T02:01:05;98788.59;;;9.89;87.93
57572;BME280;44459;43.522;24.470;2023-02-26T02:03:36;98785.03;;;9.91;87.57
57572;BME280;44459;43.522;24.470;2023-02-26T02:06:08;98792.06;;;9.92;87.34
57572;BME280;44459;43.522;24.470;2023-02-26T02:08:36;98788.44;;;9.96;86.84
57572;BME280;44459;43.522;24.470;2023-02-26T02:11:03;98790.16;;;10.00;86.10
57572;BME280;44459;43.522;24.470;2023-02-26T02:13:43;98792.78;;;10.02;85.79
57572;BME280;44459;43.522;24.470;2023-02-26T02:19:01;98793.56;;;10.07;85.32
57572;BME280;44459;43.522;24.470;2023-02-26T02:24:57;98789.22;;;10.06;85.13
57572;BME280;44459;43.522;24.470;2023-02-26T02:32:56;98811.97;;;10.13;83.37
57572;BME280;44459;43.522;24.470;2023-02-26T02:35:30;98809.25;;;10.18;82.85
57572;BME280;44459;43.522;24.470;2023-02-26T02:38:08;98811.00;;;10.19;82.63
57572;BME280;44459;43.522;24.470;2023-02-26T02:40:39;98811.00;;;10.20;82.18
57572;BME280;44459;43.522;24.470;2023-02-26T02:43:12;98812.66;;;10.24;82.17
57572;BME280;44459;43.522;24.470;2023-02-26T02:45:53;98810.84;;;10.28;81.79
57572;BME280;44459;43.522;24.470;2023-02-26T02:48:28;98817.00;;;10.30;81.13
57572;BME280;44459;43.522;24.470;2023-02-26T02:51:00;98812.56;;;10.32;80.62
57572;BME280;44459;43.522;24.470;2023-02-26T02:53:38;98812.50;;;10.35;78.85
57572;BME280;44459;43.522;24.470;2023-02-26T02:56:17;98812.44;;;10.41;78.76
57572;BME280;44459;43.522;24.470;2023-02-26T02:58:54;98815.88;;;10.44;79.40
57572;BME280;44459;43.522;24.470;2023-02-26T03:01:23;98813.25;;;10.43;78.04
57572;BME280;44459;43.522;24.470;2023-02-26T03:04:03;98809.69;;;10.47;77.48
57572;BME280;44459;43.522;24.470;2023-02-26T03:06:30;98803.47;;;10.51;77.17
57572;BME280;44459;43.522;24.470;2023-02-26T03:08:56;98800.78;;;10.54;76.04
57572;BME280;44459;43.522;24.470;2023-02-26T03:11:22;98805.06;;;10.59;74.89
57572;BME280;44459;43.522;24.470;2023-02-26T03:13:49;98792.69;;;10.63;74.69
57572;BME280;44459;43.522;24.470;2023-02-26T03:21:44;98781.94;;;10.75;73.80
57572;BME280;44459;43.522;24.470;2023-02-26T03:29:17;98791.44;;;10.84;71.92
57572;BME280;44459;43.522;24.470;2023-02-26T03:31:52;98800.22;;;10.86;71.56
57572;BME280;44459;43.522;24.470;2023-02-26T03:34:30;98799.22;;;10.90;71.37
57572;BME280;44459;43.522;24.470;2023-02-26T03:37:07;98807.16;;;10.90;71.93
57572;BME280;44459;43.522;24.470;2023-02-26T03:39:40;98796.66;;;10.87;71.92
57572;BME280;44459;43.522;24.470;2023-02-26T03:42:11;98795.75;;;10.88;71.95
57572;BME280;44459;43.522;24.470;2023-02-26T03:45:09;98794.88;;;10.87;70.78
57572;BME280;44459;43.522;24.470;2023-02-26T03:47:37;98803.59;;;10.92;68.01
57572;BME280;44459;43.522;24.470;2023-02-26T03:50:10;98804.31;;;11.02;67.49
57572;BME280;44459;43.522;24.470;2023-02-26T03:52:40;98805.91;;;11.10;66.63
57572;BME280;44459;43.522;24.470;2023-02-26T03:55:16;98805.66;;;11.23;66.00
57572;BME280;44459;43.522;24.470;2023-02-26T03:57:42;98800.22;;;11.30;66.29
57572;BME280;44459;43.522;24.470;2023-02-26T04:00:10;98799.22;;;11.37;66.56
57572;BME280;44459;43.522;24.470;2023-02-26T04:02:41;98797.38;;;11.41;66.35
57572;BME280;44459;43.522;24.470;2023-02-26T04:05:16;98798.25;;;11.41;66.89
57572;BME280;44459;43.522;24.470;2023-02-26T04:07:44;98791.22;;;11.42;67.29
57572;BME280;44459;43.522;24.470;2023-02-26T04:10:14;98801.63;;;11.48;67.56
57572;BME280;44459;43.522;24.470;2023-02-26T04:12:41;98799.81;;;11.51;66.95
57572;BME280;44459;43.522;24.470;2023-02-26T04:15:07;98802.44;;;11.51;67.56
57572;BME280;44459;43.522;24.470;2023-02-26T04:17:33;98806.78;;;11.55;66.98
57572;BME280;44459;43.522;24.470;2023-02-26T04:19:58;98812.88;;;11.59;67.05
57572;BME280;44459;43.522;24.470;2023-02-26T04:22:23;98832.94;;;11.68;66.14
57572;BME280;44459;43.522;24.470;2023-02-26T04:24:49;98827.53;;;11.74;66.04
57572;BME280;44459;43.522;24.470;2023-02-26T04:27:14;98827.44;;;11.78;65.43
57572;BME280;44459;43.522;24.470;2023-02-26T04:29:40;98829.06;;;11.85;65.04
57572;BME280;44459;43.522;24.470;2023-02-26T04:32:05;98832.50;;;11.90;65.64
57572;BME280;44459;43.522;24.470;2023-02-26T04:34:31;98835.09;;;11.92;64.49
57572;BME280;44459;43.522;24.470;2023-02-26T04:36:56;98828.81;;;11.97;63.61
57572;BME280;44459;43.522;24.470;2023-02-26T04:39:22;98831.19;;;12.08;64.03
57572;BME280;44459;43.522;24.470;2023-02-26T04:41:47;98826.69;;;12.11;62.81
57572;BME280;44459;43.522;24.470;2023-02-26T04:44:13;98823.09;;;12.16;63.41
57572;BME280;44459;43.522;24.470;2023-02-26T04:46:38;98832.69;;;12.20;62.98
57572;BME280;44459;43.522;24.470;2023-02-26T04:49:03;98837.97;;;12.21;62.84
57572;BME280;44459;43.522;24.470;2023-02-26T04:51:29;98835.25;;;12.23;61.86
57572;BME280;44459;43.522;24.470;2023-02-26T04:53:55;98843.00;;;12.32;61.50
57572;BME280;44459;43.522;24.470;2023-02-26T04:56:20;98840.22;;;12.38;61.51
57572;BME280;44459;43.522;24.470;2023-02-26T04:58:46;98844.53;;;12.42;61.41
57572;BME280;44459;43.522;24.470;2023-02-26T05:01:11;98840.03;;;12.45;60.84
57572;BME280;44459;43.522;24.470;2023-02-26T05:03:38;98837.25;;;12.50;61.18
57572;BME280;44459;43.522;24.470;2023-02-26T05:06:03;98831.03;;;12.52;60.45
57572;BME280;44459;43.522;24.470;2023-02-26T05:08:29;98830.03;;;12.56;60.74
57572;BME280;44459;43.522;24.470;2023-02-26T05:10:54;98822.94;;;12.58;60.22
57572;BME280;44459;43.522;24.470;2023-02-26T05:13:20;98823.75;;;12.60;60.11
57572;BME280;44459;43.522;24.470;2023-02-26T05:15:45;98821.97;;;12.63;59.84
57572;BME280;44459;43.522;24.470;2023-02-26T05:18:11;98814.91;;;12.63;59.63
57572;BME280;44459;43.522;24.470;2023-02-26T05:20:36;98820.25;;;12.60;59.73
57572;BME280;44459;43.522;24.470;2023-02-26T05:23:02;98835.22;;;12.61;60.11
57572;BME280;44459;43.522;24.470;2023-02-26T05:25:27;98816.06;;;12.51;61.72
57572;BME280;44459;43.522;24.470;2023-02-26T05:27:53;98817.03;;;12.47;61.37
57572;BME280;44459;43.522;24.470;2023-02-26T05:30:19;98820.56;;;12.48;60.31
57572;BME280;44459;43.522;24.470;2023-02-26T05:32:44;98829.13;;;12.59;59.49
57572;BME280;44459;43.522;24.470;2023-02-26T05:35:10;98815.75;;;12.63;59.25
57572;BME280;44459;43.522;24.470;2023-02-26T05:37:37;98818.38;;;12.65;60.19
57572;BME280;44459;43.522;24.470;2023-02-26T05:40:03;98819.31;;;12.63;59.26
57572;BME280;44459;43.522;24.470;2023-02-26T05:42:29;98818.47;;;12.60;59.73
57572;BME280;44459;43.522;24.470;2023-02-26T05:44:55;98824.63;;;12.61;60.09
57572;BME280;44459;43.522;24.470;2023-02-26T05:47:22;98827.38;;;12.56;60.05
57572;BME280;44459;43.522;24.470;2023-02-26T05:49:48;98810.69;;;12.54;60.11
57572;BME280;44459;43.522;24.470;2023-02-26T05:52:14;98828.19;;;12.60;59.96
57572;BME280;44459;43.522;24.470;2023-02-26T05:54:39;98830.78;;;12.63;59.91
57572;BME280;44459;43.522;24.470;2023-02-26T05:57:05;98836.91;;;12.65;60.23
57572;BME280;44459;43.522;24.470;2023-02-26T05:59:30;98842.97;;;12.70;60.11
57572;BME280;44459;43.522;24.470;2023-02-26T06:01:55;98831.34;;;12.74;60.05
57572;BME280;44459;43.522;24.470;2023-02-26T06:04:21;98817.19;;;12.77;59.64
57572;BME280;44459;43.522;24.470;2023-02-26T06:06:46;98819.78;;;12.78;59.97
57572;BME280;44459;43.522;24.470;2023-02-26T06:09:12;98831.19;;;12.82;59.18
57572;BME280;44459;43.522;24.470;2023-02-26T06:11:37;98826.66;;;12.85;60.37
57572;BME280;44459;43.522;24.470;2023-02-26T06:14:04;98831.06;;;12.86;59.58
57572;BME280;44459;43.522;24.470;2023-02-26T06:16:30;98844.16;;;12.92;59.43
57572;BME280;44459;43.522;24.470;2023-02-26T06:18:56;98846.59;;;13.00;58.62
57572;BME280;44459;43.522;24.470;2023-02-26T06:21:22;98844.59;;;13.09;58.31
57572;BME280;44459;43.522;24.470;2023-02-26T06:23:48;98841.72;;;13.19;57.31
57572;BME280;44459;43.522;24.470;2023-02-26T06:26:13;98841.38;;;13.31;57.22
57572;BME280;44459;43.522;24.470;2023-02-26T06:28:38;98840.34;;;13.36;57.54
57572;BME280;44459;43.522;24.470;2023-02-26T06:31:04;98846.28;;;13.46;57.10
57572;BME280;44459;43.522;24.470;2023-02-26T06:33:29;98846.09;;;13.52;56.80
57572;BME280;44459;43.522;24.470;2023-02-26T06:35:55;98835.22;;;13.61;57.30
57572;BME280;44459;43.522;24.470;2023-02-26T06:38:22;98841.19;;;13.69;56.71
57572;BME280;44459;43.522;24.470;2023-02-26T06:40:48;98844.44;;;13.79;56.50
57572;BME280;44459;43.522;24.470;2023-02-26T06:43:13;98845.88;;;13.90;55.98
57572;BME280;44459;43.522;24.470;2023-02-26T06:45:38;98841.03;;;14.04;55.19
57572;BME280;44459;43.522;24.470;2023-02-26T06:48:04;98842.34;;;14.19;55.35
57572;BME280;44459;43.522;24.470;2023-02-26T06:50:29;98847.31;;;14.30;55.27
57572;BME280;44459;43.522;24.470;2023-02-26T06:52:56;98854.06;;;14.41;54.74
57572;BME280;44459;43.522;24.470;2023-02-26T06:55:21;98859.88;;;14.54;54.11
57572;BME280;44459;43.522;24.470;2023-02-26T06:57:54;98854.22;;;14.65;53.50
57572;BME280;44459;43.522;24.470;2023-02-26T07:00:20;98862.56;;;14.79;52.88
57572;BME280;44459;43.522;24.470;2023-02-26T07:02:45;98856.59;;;14.98;52.58
57572;BME280;44459;43.522;24.470;2023-02-26T07:05:10;98856.06;;;15.13;51.25
57572;BME280;44459;43.522;24.470;2023-02-26T07:07:36;98853.66;;;15.32;51.47
57572;BME280;44459;43.522;24.470;2023-02-26T07:10:02;98852.00;;;15.54;50.24
57572;BME280;44459;43.522;24.470;2023-02-26T07:12:27;98854.63;;;15.79;50.03
57572;BME280;44459;43.522;24.470;2023-02-26T07:14:53;98859.97;;;16.02;50.68
57572;BME280;44459;43.522;24.470;2023-02-26T07:17:18;98849.41;;;16.23;49.60
57572;BME280;44459;43.522;24.470;2023-02-26T07:19:48;98840.63;;;16.42;47.35
57572;BME280;44459;43.522;24.470;2023-02-26T07:22:14;98842.91;;;16.75;46.55
57572;BME280;44459;43.522;24.470;2023-02-26T07:24:41;98841.41;;;16.89;45.95
57572;BME280;44459;43.522;24.470;2023-02-26T07:27:07;98842.91;;;17.17;44.80
57572;BME280;44459;43.522;24.470;2023-02-26T07:29:32;98833.75;;;17.42;44.07
57572;BME280;44459;43.522;24.470;2023-02-26T07:31:58;98836.91;;;17.72;42.47
57572;BME280;44459;43.522;24.470;2023-02-26T07:34:23;98839.03;;;18.03;42.10
57572;BME280;44459;43.522;24.470;2023-02-26T07:36:49;98834.50;;;18.05;41.72
57572;BME280;44459;43.522;24.470;2023-02-26T07:39:14;98834.94;;;18.15;41.88
57572;BME280;44459;43.522;24.470;2023-02-26T07:41:39;98837.03;;;18.27;41.24
57572;BME280;44459;43.522;24.470;2023-02-26T07:44:05;98843.97;;;18.31;41.43
57572;BME280;44459;43.522;24.470;2023-02-26T07:46:31;98835.22;;;18.27;40.53
57572;BME280;44459;43.522;24.470;2023-02-26T07:48:56;98829.38;;;18.19;40.12
57572;BME280;44459;43.522;24.470;2023-02-26T07:51:22;98832.44;;;18.12;39.58
57572;BME280;44459;43.522;24.470;2023-02-26T07:53:47;98828.53;;;18.19;40.02
57572;BME280;44459;43.522;24.470;2023-02-26T07:56:12;98828.75;;;18.14;39.64
57572;BME280;44459;43.522;24.470;2023-02-26T07:58:38;98828.09;;;18.28;39.82
57572;BME280;44459;43.522;24.470;2023-02-26T08:01:03;98828.84;;;18.48;38.93
57572;BME280;44459;43.522;24.470;2023-02-26T08:03:29;98822.22;;;18.57;38.58
57572;BME280;44459;43.522;24.470;2023-02-26T08:05:56;98828.16;;;18.64;37.87
57572;BME280;44459;43.522;24.470;2023-02-26T08:08:24;98812.38;;;18.76;38.00
57572;BME280;44459;43.522;24.470;2023-02-26T08:10:50;98807.50;;;18.84;36.71
57572;BME280;44459;43.522;24.470;2023-02-26T08:13:15;98820.19;;;18.98;37.01
57572;BME280;44459;43.522;24.470;2023-02-26T08:15:41;98826.53;;;19.13;37.23
57572;BME280;44459;43.522;24.470;2023-02-26T08:18:08;98806.44;;;19.23;36.79
57572;BME280;44459;43.522;24.470;2023-02-26T08:20:34;98814.91;;;19.31;36.87
57572;BME280;44459;43.522;24.470;2023-02-26T08:22:59;98810.38;;;19.50;37.32
57572;BME280;44459;43.522;24.470;2023-02-26T08:25:25;98819.84;;;19.73;37.05
57572;BME280;44459;43.522;24.470;2023-02-26T08:27:50;98817.47;;;19.99;36.95
57572;BME280;44459;43.522;24.470;2023-02-26T08:30:16;98811.16;;;20.33;36.06
57572;BME280;44459;43.522;24.470;2023-02-26T08:32:41;98814.53;;;20.68;35.48
57572;BME280;44459;43.522;24.470;2023-02-26T08:35:08;98815.13;;;21.19;35.00
57572;BME280;44459;43.522;24.470;2023-02-26T08:37:34;98815.00;;;21.50;33.75
57572;BME280;44459;43.522;24.470;2023-02-26T08:39:59;98817.97;;;21.45;33.81
57572;BME280;44459;43.522;24.470;2023-02-26T08:42:25;98809.75;;;21.19;34.45
57572;BME280;44459;43.522;24.470;2023-02-26T08:44:50;98801.34;;;20.79;35.03
57572;BME280;44459;43.522;24.470;2023-02-26T08:47:16;98798.19;;;20.57;35.56
57572;BME280;44459;43.522;24.470;2023-02-26T08:49:41;98801.47;;;20.31;36.16
57572;BME280;44459;43.522;24.470;2023-02-26T08:52:06;98790.78;;;20.14;35.78
57572;BME280;44459;43.522;24.470;2023-02-26T08:54:32;98808.78;;;20.12;36.89
57572;BME280;44459;43.522;24.470;2023-02-26T08:56:58;98808.78;;;20.12;37.03
57572;BME280;44459;43.522;24.470;2023-02-26T08:59:24;98807.84;;;20.13;36.92
57572;BME280;44459;43.522;24.470;2023-02-26T09:01:50;98802.31;;;20.16;37.24
57572;BME280;44459;43.522;24.470;2023-02-26T09:04:16;98800.03;;;20.24;37.34
57572;BME280;44459;43.522;24.470;2023-02-26T09:06:41;98798.88;;;20.29;36.99
57572;BME280;44459;43.522;24.470;2023-02-26T09:09:07;98800.69;;;20.29;36.17
57572;BME280;44459;43.522;24.470;2023-02-26T09:11:33;98793.53;;;20.29;36.02
57572;BME280;44459;43.522;24.470;2023-02-26T09:13:58;98789.72;;;20.33;35.67
57572;BME280;44459;43.522;24.470;2023-02-26T09:16:25;98795.16;;;20.32;35.74
57572;BME280;44459;43.522;24.470;2023-02-26T09:18:50;98793.34;;;20.32;36.01
57572;BME280;44459;43.522;24.470;2023-02-26T09:21:16;98797.66;;;20.35;36.06
57572;BME280;44459;43.522;24.470;2023-02-26T09:23:41;98801.72;;;20.42;36.53
57572;BME280;44459;43.522;24.470;2023-02-26T09:26:07;98796.81;;;20.50;35.30
57572;BME280;44459;43.522;24.470;2023-02-26T09:28:33;98810.38;;;20.47;35.28
57572;BME280;44459;43.522;24.470;2023-02-26T09:30:59;98804.84;;;20.50;36.36
57572;BME280;44459;43.522;24.470;2023-02-26T09:33:24;98797.16;;;20.44;34.93
57572;BME280;44459;43.522;24.470;2023-02-26T09:35:50;98800.59;;;20.46;36.29
57572;BME280;44459;43.522;24.470;2023-02-26T09:38:16;98800.44;;;20.49;36.08
57572;BME280;44459;43.522;24.470;2023-02-26T09:40:55;98804.06;;;20.48;36.31
57572;BME280;44459;43.522;24.470;2023-02-26T09:45:49;98795.56;;;20.55;36.18
57572;BME280;44459;43.522;24.470;2023-02-26T09:48:17;98801.44;;;20.62;34.55
57572;BME280;44459;43.522;24.470;2023-02-26T09:50:50;98804.75;;;20.67;36.42
57572;BME280;44459;43.522;24.470;2023-02-26T09:53:21;98809.75;;;20.73;36.56
57572;BME280;44459;43.522;24.470;2023-02-26T09:55:48;98803.75;;;20.84;35.07
57572;BME280;44459;43.522;24.470;2023-02-26T09:58:29;98800.94;;;21.01;35.31
57572;BME280;44459;43.522;24.470;2023-02-26T10:01:20;98802.09;;;21.13;34.61
57572;BME280;44459;43.522;24.470;2023-02-26T10:09:14;98786.41;;;21.35;33.25
57572;BME280;44459;43.522;24.470;2023-02-26T10:14:33;98768.50;;;21.49;33.82
57572;BME280;44459;43.522;24.470;2023-02-26T10:17:04;98770.22;;;21.50;33.36
57572;BME280;44459;43.522;24.470;2023-02-26T10:19:37;98765.94;;;21.62;33.24
57572;BME280;44459;43.522;24.470;2023-02-26T10:25:19;98767.84;;;21.74;33.09
57572;BME280;44459;43.522;24.470;2023-02-26T10:27:57;98760.56;;;21.76;32.54
57572;BME280;44459;43.522;24.470;2023-02-26T10:30:41;98751.72;;;21.74;32.34
57572;BME280;44459;43.522;24.470;2023-02-26T10:33:13;98748.94;;;21.76;32.04
57572;BME280;44459;43.522;24.470;2023-02-26T10:35:49;98751.53;;;21.77;32.36
57572;BME280;44459;43.522;24.470;2023-02-26T10:38:19;98745.59;;;21.86;32.77
57572;BME280;44459;43.522;24.470;2023-02-26T10:41:01;98749.31;;;21.98;32.71
57572;BME280;44459;43.522;24.470;2023-02-26T10:51:39;98745.94;;;22.08;31.89
57572;BME280;44459;43.522;24.470;2023-02-26T10:56:42;98734.63;;;22.18;32.15
57572;BME280;44459;43.522;24.470;2023-02-26T10:59:08;98735.09;;;22.24;31.97
57572;BME280;44459;43.522;24.470;2023-02-26T11:01:34;98732.28;;;22.26;31.06
57572;BME280;44459;43.522;24.470;2023-02-26T11:04:03;98729.09;;;22.33;30.67
57572;BME280;44459;43.522;24.470;2023-02-26T11:06:38;98727.94;;;22.37;30.73
57572;BME280;44459;43.522;24.470;2023-02-26T11:12:00;98730.63;;;22.37;31.46
57572;BME280;44459;43.522;24.470;2023-02-26T11:14:26;98736.09;;;22.36;30.91
57572;BME280;44459;43.522;24.470;2023-02-26T11:16:55;98725.44;;;22.34;30.92
57572;BME280;44459;43.522;24.470;2023-02-26T11:19:34;98729.75;;;22.37;30.74
57572;BME280;44459;43.522;24.470;2023-02-26T11:22:02;98735.78;;;22.40;30.85
57572;BME280;44459;43.522;24.470;2023-02-26T11:24:45;98720.22;;;22.45;30.58
57572;BME280;44459;43.522;24.470;2023-02-26T11:27:18;98722.50;;;22.51;29.68
57572;BME280;44459;43.522;24.470;2023-02-26T11:29:52;98730.81;;;22.61;29.70
57572;BME280;44459;43.522;24.470;2023-02-26T11:32:27;98723.41;;;22.65;29.72
57572;BME280;44459;43.522;24.470;2023-02-26T11:34:53;98723.69;;;22.74;30.25
57572;BME280;44459;43.522;24.470;2023-02-26T11:37:23;98716.41;;;22.89;29.98
57572;BME280;44459;43.522;24.470;2023-02-26T11:39:55;98706.50;;;22.89;29.15
57572;BME280;44459;43.522;24.470;2023-02-26T11:42:22;98704.25;;;22.96;29.20
57572;BME280;44459;43.522;24.470;2023-02-26T11:44:49;98699.59;;;22.98;29.00
57572;BME280;44459;43.522;24.470;2023-02-26T11:47:19;98706.75;;;23.12;29.63
57572;BME280;44459;43.522;24.470;2023-02-26T11:49:52;98706.09;;;23.21;28.22
57572;BME280;44459;43.522;24.470;2023-02-26T11:52:28;98698.03;;;23.21;27.81
57572;BME280;44459;43.522;24.470;2023-02-26T11:55:04;98695.34;;;23.21;28.50
57572;BME280;44459;43.522;24.470;2023-02-26T11:57:31;98686.41;;;23.20;28.68
57572;BME280;44459;43.522;24.470;2023-02-26T11:59:59;98693.38;;;23.23;29.71
57572;BME280;44459;43.522;24.470;2023-02-26T12:02:26;98679.50;;;23.16;28.43
57572;BME280;44459;43.522;24.470;2023-02-26T12:04:58;98672.50;;;23.14;29.57
57572;BME280;44459;43.522;24.470;2023-02-26T12:07:25;98683.81;;;23.06;28.36
57572;BME280;44459;43.522;24.470;2023-02-26T12:09:51;98679.59;;;23.02;29.52
57572;BME280;44459;43.522;24.470;2023-02-26T12:12:42;98684.44;;;22.97;29.56
57572;BME280;44459;43.522;24.470;2023-02-26T12:15:21;98682.16;;;22.91;29.70
57572;BME280;44459;43.522;24.470;2023-02-26T12:17:58;98684.75;;;22.80;29.45
57572;BME280;44459;43.522;24.470;2023-02-26T12:20:34;98687.66;;;22.77;30.92
57572;BME280;44459;43.522;24.470;2023-02-26T12:23:23;98692.16;;;22.76;30.51
57572;BME280;44459;43.522;24.470;2023-02-26T12:34:32;98692.41;;;22.59;31.90
57572;BME280;44459;43.522;24.470;2023-02-26T12:47:56;98699.97;;;22.13;33.13
57572;BME280;44459;43.522;24.470;2023-02-26T13:01:18;98712.38;;;21.73;33.83
57572;BME280;44459;43.522;24.470;2023-02-26T13:07:00;98716.13;;;21.56;34.55
57572;BME280;44459;43.522;24.470;2023-02-26T13:09:58;98718.44;;;21.48;34.69
57572;BME280;44459;43.522;24.470;2023-02-26T13:12:50;98719.00;;;21.39;35.02
57572;BME280;44459;43.522;24.470;2023-02-26T13:20:36;98728.97;;;21.23;35.08
57572;BME280;44459;43.522;24.470;2023-02-26T13:23:18;98737.97;;;21.22;34.79
57572;BME280;44459;43.522;24.470;2023-02-26T13:25:55;98729.84;;;21.24;34.52
57572;BME280;44459;43.522;24.470;2023-02-26T13:28:56;98728.09;;;21.23;34.50
57572;BME280;44459;43.522;24.470;2023-02-26T13:33:58;98748.72;;;21.22;34.61
57572;BME280;44459;43.522;24.470;2023-02-26T13:36:27;98744.22;;;21.23;34.37
57572;BME280;44459;43.522;24.470;2023-02-26T13:39:13;98749.19;;;21.29;34.62
57572;BME280;44459;43.522;24.470;2023-02-26T13:51:05;98765.34;;;21.57;34.55
57572;BME280;44459;43.522;24.470;2023-02-26T13:56:21;98764.94;;;21.77;34.62
57572;BME280;44459;43.522;24.470;2023-02-26T13:59:01;98770.72;;;21.85;33.39
57572;BME280;44459;43.522;24.470;2023-02-26T14:01:27;98772.09;;;21.92;33.04
57572;BME280;44459;43.522;24.470;2023-02-26T14:07:10;98770.81;;;21.98;32.54
57572;BME280;44459;43.522;24.470;2023-02-26T14:10:03;98751.13;;;21.83;32.66
57572;BME280;44459;43.522;24.470;2023-02-26T14:12:36;98755.94;;;21.64;32.98
57572;BME280;44459;43.522;24.470;2023-02-26T14:15:30;98758.81;;;21.47;32.70
57572;BME280;44459;43.522;24.470;2023-02-26T14:18:04;98756.97;;;21.33;32.73
57572;BME280;44459;43.522;24.470;2023-02-26T14:20:31;98757.16;;;21.30;33.57
57572;BME280;44459;43.522;24.470;2023-02-26T14:25:53;98749.59;;;21.07;33.96
57572;BME280;44459;43.522;24.470;2023-02-26T14:33:38;98768.19;;;20.96;33.85
57572;BME280;44459;43.522;24.470;2023-02-26T14:36:13;98768.19;;;20.96;34.11
57572;BME280;44459;43.522;24.470;2023-02-26T14:38:40;98782.72;;;20.92;34.67
57572;BME280;44459;43.522;24.470;2023-02-26T14:41:22;98787.47;;;20.87;33.93
57572;BME280;44459;43.522;24.470;2023-02-26T14:44:01;98796.75;;;20.81;33.89
57572;BME280;44459;43.522;24.470;2023-02-26T14:46:28;98803.50;;;20.73;34.61
57572;BME280;44459;43.522;24.470;2023-02-26T14:48:54;98801.13;;;20.68;35.26
57572;BME280;44459;43.522;24.470;2023-02-26T15:02:32;98852.75;;;19.92;41.77
57572;BME280;44459;43.522;24.470;2023-02-26T15:08:02;98866.59;;;19.50;43.68
57572;BME280;44459;43.522;24.470;2023-02-26T15:22:06;98895.44;;;17.77;51.84
57572;BME280;44459;43.522;24.470;2023-02-26T15:24:33;98918.59;;;17.56;53.15
57572;BME280;44459;43.522;24.470;2023-02-26T15:27:02;98914.66;;;17.43;54.24
57572;BME280;44459;43.522;24.470;2023-02-26T15:29:34;98922.66;;;17.01;57.48
57572;BME280;44459;43.522;24.470;2023-02-26T15:35:18;98923.38;;;16.15;62.90
57572;BME280;44459;43.522;24.470;2023-02-26T15:37:52;98935.69;;;15.94;64.15
57572;BME280;44459;43.522;24.470;2023-02-26T15:40:19;98937.31;;;15.48;65.87
57572;BME280;44459;43.522;24.470;2023-02-26T15:42:48;98946.25;;;15.46;66.02